Time;durP1;ratioP1;P1;durP2;ratioP2;P2;SDS_P1;SDS_P2;PMS_P1;PMS_P2;Temp;Humidity;BMP_temperature;BMP_pressure;BME280_temperature;BME280_humidity;BME280_pressure;Samples;Min_cycle;Max_cycle;Signal;HPM_P1;HPM_P2
2021/09/30 00:01:08;;;;;;;8.63;1.60;;;9.70;99.90;;;;;;4860486;29;20052;-87
2021/09/30 00:03:37;;;;;;;14.50;1.63;;;9.70;99.90;;;;;;4856189;29;20099;-87
2021/09/30 00:06:03;;;;;;;8.45;1.50;;;9.70;99.90;;;;;;4871949;29;20066;-85
2021/09/30 00:08:28;;;;;;;13.98;2.40;;;9.70;99.90;;;;;;4854974;29;20051;-86
2021/09/30 00:11:12;;;;;;;12.55;1.73;;;9.70;99.90;;;;;;4856998;29;20089;-87
2021/09/30 00:13:51;;;;;;;11.35;1.77;;;9.80;99.90;;;;;;4898337;29;20079;-87
2021/09/30 00:40:16;;;;;;;11.25;1.85;;;9.60;99.90;;;;;;4880553;29;20515;-88
2021/09/30 00:48:10;;;;;;;11.73;1.55;;;9.50;99.90;;;;;;4874348;29;20040;-87
2021/09/30 00:50:52;;;;;;;10.80;1.92;;;9.50;99.90;;;;;;4853484;29;20171;-89
2021/09/30 01:25:44;;;;;;;11.23;1.85;;;9.10;99.90;;;;;;4890299;29;20046;-87
2021/09/30 01:40:22;;;;;;;11.27;1.65;;;9.00;99.90;;;;;;4869485;29;20146;-86
2021/09/30 02:31:30;;;;;;;11.57;1.60;;;9.00;99.90;;;;;;4897295;29;20083;-86
2021/09/30 02:59:12;;;;;;;10.10;1.60;;;9.00;99.90;;;;;;4885320;29;20127;-84
2021/09/30 03:01:41;;;;;;;8.50;1.70;;;9.00;99.90;;;;;;4893213;29;20158;-85
2021/09/30 03:04:07;;;;;;;7.50;1.23;;;9.10;99.90;;;;;;4878645;29;20047;-86
2021/09/30 03:06:37;;;;;;;12.38;1.40;;;9.10;99.90;;;;;;4863143;29;20125;-85
2021/09/30 03:09:06;;;;;;;9.52;1.67;;;9.10;99.90;;;;;;4900088;29;20063;-86
2021/09/30 03:11:38;;;;;;;6.05;1.17;;;9.10;99.90;;;;;;4880333;29;20040;-89
2021/09/30 03:14:12;;;;;;;8.05;1.20;;;9.10;99.90;;;;;;4893044;29;20039;-86
2021/09/30 03:16:43;;;;;;;11.07;1.20;;;9.10;99.90;;;;;;4900596;29;20043;-85
2021/09/30 03:24:30;;;;;;;10.27;1.92;;;9.20;99.90;;;;;;4892121;29;20048;-85
2021/09/30 03:26:56;;;;;;;10.52;1.80;;;9.20;99.90;;;;;;4881799;29;20048;-84
2021/09/30 03:29:23;;;;;;;7.85;1.85;;;9.10;99.90;;;;;;4870137;29;20039;-84
2021/09/30 03:31:50;;;;;;;9.40;1.88;;;9.10;99.90;;;;;;4851836;29;20063;-85
2021/09/30 03:34:16;;;;;;;6.97;1.40;;;9.10;99.90;;;;;;4868140;29;20088;-85
2021/09/30 03:36:42;;;;;;;13.50;2.03;;;9.10;99.90;;;;;;4865377;29;20289;-85
2021/09/30 03:39:14;;;;;;;9.73;1.60;;;9.10;99.90;;;;;;4883385;29;20044;-87
2021/09/30 03:41:42;;;;;;;10.85;1.98;;;9.10;99.90;;;;;;4894015;29;20040;-86
2021/09/30 03:44:11;;;;;;;6.60;1.75;;;9.00;99.90;;;;;;4855274;29;20048;-85
2021/09/30 03:46:38;;;;;;;7.22;1.90;;;9.00;99.90;;;;;;4885736;29;20059;-86
2021/09/30 03:49:08;;;;;;;9.32;2.08;;;9.00;99.90;;;;;;4881498;29;20051;-86
2021/09/30 03:59:57;;;;;;;6.75;2.05;;;9.00;99.90;;;;;;4871151;29;20207;-85
2021/09/30 04:02:23;;;;;;;8.75;1.90;;;9.00;99.90;;;;;;4885200;29;20562;-85
2021/09/30 04:04:48;;;;;;;8.50;2.22;;;8.90;99.90;;;;;;4870143;29;20043;-86
2021/09/30 04:07:14;;;;;;;10.65;2.47;;;8.90;99.90;;;;;;4868669;29;20073;-85
2021/09/30 04:09:40;;;;;;;8.45;2.60;;;8.90;99.90;;;;;;4893097;29;20115;-85
2021/09/30 04:12:09;;;;;;;15.40;2.63;;;8.90;99.90;;;;;;4872017;29;20070;-86
2021/09/30 04:14:35;;;;;;;12.77;2.55;;;8.90;99.90;;;;;;4893117;29;20036;-85
2021/09/30 04:17:01;;;;;;;11.90;2.40;;;8.90;99.90;;;;;;4900482;29;20094;-84
2021/09/30 04:19:27;;;;;;;11.43;2.38;;;8.90;99.90;;;;;;4885349;29;20039;-86
2021/09/30 04:21:54;;;;;;;8.85;2.72;;;8.90;99.90;;;;;;4891362;29;20107;-87
2021/09/30 04:24:31;;;;;;;13.35;2.60;;;8.90;99.90;;;;;;4893835;29;20080;-85
2021/09/30 04:26:57;;;;;;;12.60;2.65;;;8.90;99.90;;;;;;4865260;29;20326;-87
2021/09/30 04:29:24;;;;;;;14.18;3.38;;;8.90;99.90;;;;;;4883142;29;20131;-86
2021/09/30 04:31:50;;;;;;;10.18;3.08;;;8.90;99.90;;;;;;4886286;29;20140;-85
2021/09/30 04:34:15;;;;;;;12.38;3.28;;;8.90;99.90;;;;;;4870253;29;20103;-84
2021/09/30 04:36:41;;;;;;;11.23;3.53;;;9.00;99.90;;;;;;4897636;29;20132;-87
2021/09/30 04:39:07;;;;;;;9.80;3.40;;;9.00;99.90;;;;;;4893706;29;21073;-84
2021/09/30 04:41:33;;;;;;;14.20;4.00;;;9.00;99.90;;;;;;4871891;29;20043;-84
2021/09/30 04:43:59;;;;;;;16.00;4.45;;;9.00;99.90;;;;;;4880571;29;20111;-84
2021/09/30 04:46:25;;;;;;;14.00;4.30;;;9.00;99.90;;;;;;4881743;29;20066;-84
2021/09/30 04:48:51;;;;;;;15.73;4.88;;;9.00;99.90;;;;;;4881602;29;20059;-84
2021/09/30 04:51:18;;;;;;;16.67;4.55;;;9.00;99.90;;;;;;4868781;29;20066;-84
2021/09/30 04:53:44;;;;;;;14.88;4.93;;;9.00;99.90;;;;;;4882690;29;20176;-84
2021/09/30 04:56:11;;;;;;;13.82;4.80;;;9.00;99.90;;;;;;4868744;29;20040;-84
2021/09/30 04:58:38;;;;;;;15.60;4.93;;;9.00;99.90;;;;;;4875149;29;20066;-84
2021/09/30 05:01:04;;;;;;;19.58;5.25;;;9.00;99.90;;;;;;4883934;29;20124;-84
2021/09/30 05:03:31;;;;;;;16.60;4.70;;;9.00;99.90;;;;;;4889230;29;20586;-83
2021/09/30 05:05:57;;;;;;;15.43;4.85;;;9.00;99.90;;;;;;4865769;29;20048;-84
2021/09/30 05:08:23;;;;;;;24.45;5.20;;;9.00;99.90;;;;;;4875651;29;20078;-84
2021/09/30 05:10:50;;;;;;;19.92;4.72;;;9.00;99.90;;;;;;4868591;29;20104;-85
2021/09/30 05:13:20;;;;;;;17.70;5.18;;;9.00;99.90;;;;;;4891523;29;20056;-86
2021/09/30 05:15:48;;;;;;;18.70;6.00;;;8.90;99.90;;;;;;4867194;29;20143;-87
2021/09/30 05:18:17;;;;;;;21.42;7.05;;;9.00;99.90;;;;;;4872830;29;20116;-86
2021/09/30 05:20:43;;;;;;;24.50;7.05;;;8.90;99.90;;;;;;4890409;29;20207;-85
2021/09/30 05:23:18;;;;;;;24.92;7.82;;;8.90;99.90;;;;;;4871320;29;20047;-86
2021/09/30 05:25:44;;;;;;;23.67;7.30;;;8.90;99.90;;;;;;4879485;29;20051;-86
2021/09/30 05:28:12;;;;;;;26.75;7.50;;;9.00;99.90;;;;;;4884864;29;20044;-87
2021/09/30 05:30:38;;;;;;;24.40;7.32;;;8.90;99.90;;;;;;4871997;29;20494;-86
2021/09/30 05:33:04;;;;;;;25.52;7.20;;;8.90;99.90;;;;;;4887674;29;20043;-86
2021/09/30 05:36:02;;;;;;;23.40;7.35;;;8.90;99.90;;;;;;4876411;29;20061;-85
2021/09/30 05:38:31;;;;;;;19.42;7.38;;;8.90;99.90;;;;;;4849795;29;20109;-84
2021/09/30 05:40:57;;;;;;;19.30;7.47;;;8.90;99.90;;;;;;4803103;29;20437;-85
2021/09/30 05:43:35;;;;;;;23.35;7.65;;;8.90;99.90;;;;;;4871129;29;20052;-87
2021/09/30 05:46:02;;;;;;;25.88;8.50;;;8.90;99.90;;;;;;4873334;29;20084;-88
2021/09/30 05:48:29;;;;;;;25.52;9.00;;;8.80;99.90;;;;;;4889980;29;20065;-84
2021/09/30 05:50:55;;;;;;;25.45;8.60;;;8.90;99.90;;;;;;4895191;29;20072;-84
2021/09/30 05:53:21;;;;;;;26.15;8.93;;;8.90;99.90;;;;;;4898765;29;20088;-83
2021/09/30 05:55:47;;;;;;;32.35;9.40;;;8.90;99.90;;;;;;4881428;29;20088;-85
2021/09/30 05:58:15;;;;;;;31.63;10.95;;;8.90;99.90;;;;;;4880370;29;20194;-84
2021/09/30 06:00:50;;;;;;;30.63;9.15;;;8.90;99.90;;;;;;4896809;29;20047;-84
2021/09/30 06:14:10;;;;;;;27.10;7.60;;;8.90;99.90;;;;;;4879435;29;20039;-87
2021/09/30 06:16:43;;;;;;;17.08;5.85;;;8.90;99.90;;;;;;4900073;29;20043;-84
2021/09/30 06:19:09;;;;;;;21.48;6.68;;;9.00;99.90;;;;;;4876748;29;20032;-87
2021/09/30 06:21:35;;;;;;;24.52;6.65;;;9.00;99.90;;;;;;4883261;29;20048;-85
2021/09/30 06:24:01;;;;;;;22.27;6.80;;;9.00;99.90;;;;;;4879325;29;20094;-83
2021/09/30 06:26:28;;;;;;;20.25;6.78;;;9.10;99.90;;;;;;4878604;29;20050;-84
2021/09/30 06:28:54;;;;;;;28.80;7.05;;;9.10;99.90;;;;;;4888306;29;21352;-87
2021/09/30 06:31:20;;;;;;;25.92;7.00;;;9.20;99.90;;;;;;4876700;29;20059;-89
2021/09/30 06:33:46;;;;;;;18.77;5.22;;;9.20;99.90;;;;;;4892363;29;20039;-85
2021/09/30 06:36:11;;;;;;;21.73;5.35;;;9.30;99.90;;;;;;4885099;29;20036;-86
2021/09/30 06:38:37;;;;;;;21.73;4.93;;;9.30;99.90;;;;;;4877508;29;20043;-85
2021/09/30 06:41:03;;;;;;;14.90;4.90;;;9.40;99.90;;;;;;4890789;29;20040;-85
2021/09/30 06:43:29;;;;;;;17.63;4.55;;;9.40;99.90;;;;;;4873975;29;20473;-85
2021/09/30 06:45:55;;;;;;;17.08;4.05;;;9.40;99.90;;;;;;4895041;29;20063;-84
2021/09/30 06:48:20;;;;;;;16.58;4.95;;;9.40;99.90;;;;;;4898358;29;20107;-84
2021/09/30 06:50:46;;;;;;;16.80;4.40;;;9.50;99.90;;;;;;4856610;29;20044;-86
2021/09/30 06:53:13;;;;;;;21.27;4.68;;;9.50;99.90;;;;;;4899523;29;20044;-86
2021/09/30 06:55:42;;;;;;;16.15;4.55;;;9.50;99.90;;;;;;4880478;29;20036;-85
2021/09/30 06:58:10;;;;;;;18.20;4.07;;;9.50;99.90;;;;;;4880288;29;20054;-88
2021/09/30 07:00:38;;;;;;;16.52;4.18;;;9.50;99.90;;;;;;4897394;29;20174;-85
2021/09/30 07:03:03;;;;;;;21.13;3.95;;;9.60;99.90;;;;;;4873865;29;20040;-84
2021/09/30 07:05:30;;;;;;;19.02;4.57;;;9.70;99.90;;;;;;4882246;29;20044;-84
2021/09/30 07:07:55;;;;;;;22.45;5.25;;;9.70;99.90;;;;;;4912891;29;20073;-85
2021/09/30 07:10:21;;;;;;;27.35;5.90;;;9.90;99.90;;;;;;4881570;29;20040;-86
2021/09/30 07:12:47;;;;;;;21.75;5.70;;;9.90;99.90;;;;;;4880395;29;20044;-86
2021/09/30 07:15:13;;;;;;;19.33;6.38;;;10.00;99.90;;;;;;4873628;29;20043;-86
2021/09/30 07:17:39;;;;;;;24.90;6.35;;;10.00;99.90;;;;;;4887263;29;20407;-87
2021/09/30 07:20:06;;;;;;;24.92;6.70;;;10.00;99.90;;;;;;4885049;29;20934;-84
2021/09/30 07:22:31;;;;;;;23.23;7.13;;;10.10;99.90;;;;;;4872570;29;20047;-85
2021/09/30 07:24:57;;;;;;;17.33;5.95;;;10.10;99.90;;;;;;4855551;29;20043;-85
2021/09/30 07:27:23;;;;;;;22.02;6.13;;;10.20;99.90;;;;;;4856012;29;20044;-84
2021/09/30 07:29:50;;;;;;;20.98;5.90;;;10.20;99.90;;;;;;4891874;29;20558;-85
2021/09/30 07:32:16;;;;;;;22.20;5.57;;;10.20;99.90;;;;;;4883821;29;20044;-86
2021/09/30 07:34:42;;;;;;;21.42;5.82;;;10.30;99.90;;;;;;4886308;29;20094;-84
2021/09/30 07:37:08;;;;;;;16.08;5.80;;;10.40;99.90;;;;;;4883477;29;20044;-84
2021/09/30 07:39:34;;;;;;;18.15;4.95;;;10.40;99.90;;;;;;4893009;29;20042;-86
2021/09/30 07:41:59;;;;;;;25.42;5.80;;;10.40;99.90;;;;;;4893076;29;20035;-85
2021/09/30 07:44:26;;;;;;;16.08;5.15;;;10.50;99.90;;;;;;4858983;29;20040;-83
2021/09/30 07:46:54;;;;;;;17.92;5.07;;;10.50;99.90;;;;;;4884565;29;20040;-86
2021/09/30 07:49:20;;;;;;;19.05;5.55;;;10.60;99.90;;;;;;4882122;29;20091;-85
2021/09/30 07:51:46;;;;;;;16.90;4.75;;;10.70;99.90;;;;;;4881743;29;20044;-84
2021/09/30 07:54:14;;;;;;;18.23;5.45;;;10.70;99.90;;;;;;4891678;29;20035;-85
2021/09/30 07:56:40;;;;;;;14.48;4.35;;;10.80;99.90;;;;;;4878040;29;20047;-84
2021/09/30 07:59:06;;;;;;;17.13;4.55;;;10.90;99.90;;;;;;4873197;29;20103;-84
2021/09/30 08:01:32;;;;;;;15.35;4.82;;;10.90;99.90;;;;;;4881951;29;20040;-85
2021/09/30 08:04:00;;;;;;;21.70;4.95;;;10.90;99.90;;;;;;4882898;29;20044;-85
2021/09/30 08:06:26;;;;;;;15.70;4.68;;;11.00;99.90;;;;;;4876141;29;20040;-84
2021/09/30 08:08:52;;;;;;;15.90;3.90;;;11.10;99.90;;;;;;4868293;29;20211;-83
2021/09/30 08:11:18;;;;;;;13.32;4.30;;;11.10;99.90;;;;;;4889852;29;20039;-86
2021/09/30 08:13:43;;;;;;;14.48;4.45;;;11.20;99.90;;;;;;4884869;29;20380;-84
2021/09/30 08:16:10;;;;;;;18.73;4.38;;;11.30;99.90;;;;;;4882609;29;20183;-85
2021/09/30 08:18:36;;;;;;;9.70;3.53;;;11.30;99.90;;;;;;4880656;29;20036;-84
2021/09/30 08:21:01;;;;;;;11.82;3.60;;;11.40;99.90;;;;;;4866977;29;20047;-84
2021/09/30 08:23:27;;;;;;;14.68;3.80;;;11.50;99.90;;;;;;4874004;29;20134;-84
2021/09/30 08:25:53;;;;;;;20.30;4.65;;;11.50;99.90;;;;;;4867693;29;20051;-84
2021/09/30 08:28:20;;;;;;;14.43;4.57;;;11.50;99.90;;;;;;4881509;29;20048;-82
2021/09/30 08:30:49;;;;;;;12.23;3.33;;;11.60;99.90;;;;;;4883701;29;20048;-85
2021/09/30 08:33:15;;;;;;;13.25;3.38;;;11.60;99.90;;;;;;4858811;29;20316;-84
2021/09/30 08:35:41;;;;;;;14.10;3.78;;;11.70;99.90;;;;;;4876715;29;20044;-87
2021/09/30 08:38:07;;;;;;;12.35;3.13;;;11.80;99.90;;;;;;4882421;29;20114;-85
2021/09/30 08:40:34;;;;;;;11.48;3.78;;;11.90;99.90;;;;;;4881011;29;20274;-84
2021/09/30 08:43:00;;;;;;;12.02;2.75;;;11.90;99.90;;;;;;4890534;29;20131;-85
2021/09/30 08:45:26;;;;;;;11.70;3.17;;;12.00;99.90;;;;;;4882932;29;20043;-84
2021/09/30 08:47:59;;;;;;;9.63;2.25;;;12.10;99.90;;;;;;4883811;29;20369;-85
2021/09/30 08:50:25;;;;;;;11.95;2.88;;;12.10;99.90;;;;;;4885219;29;20040;-86
2021/09/30 08:52:51;;;;;;;11.77;2.30;;;12.10;99.90;;;;;;4882411;29;20604;-85
2021/09/30 08:55:17;;;;;;;12.32;2.50;;;12.20;99.90;;;;;;4883467;29;20119;-85
2021/09/30 08:57:47;;;;;;;8.85;1.95;;;12.30;99.90;;;;;;4883168;29;20053;-84
2021/09/30 09:00:14;;;;;;;9.55;1.65;;;12.40;99.90;;;;;;4874204;29;20432;-85
2021/09/30 09:02:48;;;;;;;7.53;2.08;;;12.40;99.90;;;;;;4857657;29;20043;-84
2021/09/30 09:05:14;;;;;;;14.15;1.83;;;12.40;99.90;;;;;;4883161;29;20620;-85
2021/09/30 09:08:00;;;;;;;11.13;2.20;;;12.50;99.90;;;;;;4878525;29;20047;-84
2021/09/30 09:10:35;;;;;;;12.93;2.20;;;12.50;99.90;;;;;;4879136;29;20078;-87
2021/09/30 09:13:07;;;;;;;8.68;2.00;;;12.50;99.90;;;;;;4884755;29;20036;-84
2021/09/30 09:15:45;;;;;;;8.65;2.63;;;12.60;99.90;;;;;;4883156;29;20043;-85
2021/09/30 09:18:16;;;;;;;13.90;2.70;;;12.70;99.90;;;;;;4906058;29;20514;-85
2021/09/30 09:20:48;;;;;;;17.98;3.53;;;12.70;99.90;;;;;;4890194;29;20044;-83
2021/09/30 09:23:14;;;;;;;12.02;3.80;;;12.70;99.90;;;;;;4881332;29;20047;-86
2021/09/30 09:25:40;;;;;;;18.63;4.38;;;12.70;99.90;;;;;;4863936;29;20036;-85
2021/09/30 09:28:06;;;;;;;18.30;5.07;;;12.70;99.90;;;;;;4891208;29;20076;-83
2021/09/30 09:30:49;;;;;;;18.45;5.32;;;12.80;99.90;;;;;;4891620;29;20115;-84
2021/09/30 09:33:15;;;;;;;24.75;5.63;;;12.90;99.90;;;;;;4883111;29;20032;-84
2021/09/30 09:35:46;;;;;;;17.80;4.80;;;12.90;99.90;;;;;;4895195;29;20115;-82
2021/09/30 09:38:12;;;;;;;21.33;5.60;;;13.00;99.90;;;;;;4892074;29;20040;-87
2021/09/30 09:40:39;;;;;;;24.63;5.18;;;13.10;99.90;;;;;;4874312;29;20476;-87
2021/09/30 09:43:34;;;;;;;20.20;5.22;;;13.10;99.90;;;;;;4867188;29;20052;-86
2021/09/30 09:46:02;;;;;;;22.88;5.40;;;13.20;99.90;;;;;;4876943;29;20558;-85
2021/09/30 09:48:28;;;;;;;20.05;4.82;;;13.20;99.90;;;;;;4886021;29;20036;-85
2021/09/30 09:50:57;;;;;;;23.75;5.43;;;13.30;99.90;;;;;;4877854;29;20043;-87
2021/09/30 09:53:29;;;;;;;19.17;4.43;;;13.30;99.90;;;;;;4870442;29;20036;-84
2021/09/30 09:56:10;;;;;;;16.25;4.05;;;13.30;99.90;;;;;;4881058;29;20048;-85
2021/09/30 09:58:45;;;;;;;24.33;4.57;;;13.30;99.90;;;;;;4879857;29;20055;-84
2021/09/30 10:01:10;;;;;;;17.83;4.60;;;13.20;99.90;;;;;;4879293;29;20242;-84
2021/09/30 10:03:37;;;;;;;22.05;4.90;;;13.20;99.90;;;;;;4882791;29;20043;-84
2021/09/30 10:06:06;;;;;;;22.30;4.22;;;13.20;99.90;;;;;;4892564;29;20079;-85
2021/09/30 10:08:33;;;;;;;18.92;4.95;;;13.20;99.90;;;;;;4884848;29;20527;-85
2021/09/30 10:10:59;;;;;;;17.25;3.92;;;13.20;99.90;;;;;;4867558;29;20135;-85
2021/09/30 10:13:27;;;;;;;17.45;4.22;;;13.20;99.90;;;;;;4909938;29;20139;-83
2021/09/30 10:15:56;;;;;;;15.90;3.67;;;13.30;99.90;;;;;;4895479;29;20075;-84
2021/09/30 10:18:26;;;;;;;19.50;4.05;;;13.30;99.90;;;;;;4896478;29;20355;-83
2021/09/30 10:20:53;;;;;;;11.60;3.85;;;13.30;99.90;;;;;;4886583;29;20046;-85
2021/09/30 10:23:27;;;;;;;16.08;4.55;;;13.40;99.90;;;;;;4881588;29;20160;-87
2021/09/30 10:25:58;;;;;;;14.65;3.95;;;13.50;99.90;;;;;;4887878;29;20039;-84
2021/09/30 10:28:25;;;;;;;14.82;3.42;;;13.60;99.90;;;;;;4895810;29;20040;-84
2021/09/30 10:30:53;;;;;;;17.30;2.97;;;13.60;99.90;;;;;;4899036;29;20099;-82
2021/09/30 10:33:23;;;;;;;8.10;2.05;;;13.60;99.90;;;;;;4890766;29;20067;-84
2021/09/30 10:35:53;;;;;;;14.02;2.17;;;13.60;99.90;;;;;;4897655;29;20303;-86
2021/09/30 10:38:31;;;;;;;10.25;2.40;;;13.80;99.90;;;;;;4889620;29;20036;-86
2021/09/30 10:41:01;;;;;;;11.20;2.85;;;13.80;99.90;;;;;;4870989;29;20131;-84
2021/09/30 10:43:31;;;;;;;9.70;2.00;;;13.90;99.90;;;;;;4893799;29;20051;-84
2021/09/30 10:45:58;;;;;;;10.48;1.70;;;13.90;99.90;;;;;;4888282;29;20076;-84
2021/09/30 10:48:23;;;;;;;7.78;1.75;;;14.00;99.90;;;;;;4881661;29;20067;-83
2021/09/30 10:50:58;;;;;;;8.80;1.88;;;14.10;99.40;;;;;;4893726;29;20561;-85
2021/09/30 10:53:46;;;;;;;5.43;1.20;;;14.20;97.70;;;;;;4887675;29;20118;-83
2021/09/30 10:56:24;;;;;;;8.45;1.48;;;14.20;97.80;;;;;;4910381;29;20123;-81
2021/09/30 10:58:50;;;;;;;8.20;1.58;;;14.20;97.90;;;;;;4880135;29;20302;-83
2021/09/30 11:01:19;;;;;;;6.97;1.42;;;14.20;97.50;;;;;;4879240;29;20043;-87
2021/09/30 11:04:02;;;;;;;8.43;1.52;;;14.20;97.60;;;;;;4867044;29;20533;-82
2021/09/30 11:06:28;;;;;;;7.88;1.45;;;14.20;97.70;;;;;;4895942;29;20599;-84
2021/09/30 11:09:21;;;;;;;12.60;1.85;;;14.30;97.90;;;;;;4902773;29;20131;-83
2021/09/30 11:11:51;;;;;;;8.85;1.58;;;14.20;95.70;;;;;;4910394;29;22392;-84
2021/09/30 11:14:24;;;;;;;7.65;1.90;;;14.20;97.10;;;;;;4885413;29;20078;-81
2021/09/30 11:17:03;;;;;;;11.32;2.10;;;14.20;96.80;;;;;;4894294;29;20071;-84
2021/09/30 11:19:40;;;;;;;13.05;2.53;;;14.20;96.40;;;;;;4863389;29;20044;-84
2021/09/30 11:22:10;;;;;;;11.73;2.17;;;14.20;96.60;;;;;;4893958;29;20043;-81
2021/09/30 11:24:51;;;;;;;7.90;2.20;;;14.20;97.00;;;;;;4880273;29;20043;-82
2021/09/30 11:27:18;;;;;;;11.02;2.20;;;14.30;96.80;;;;;;4894844;29;20072;-82
2021/09/30 11:29:44;;;;;;;11.82;1.80;;;14.30;96.70;;;;;;4886583;29;20062;-81
2021/09/30 11:32:10;;;;;;;9.85;2.03;;;14.30;96.90;;;;;;4868942;29;20036;-84
2021/09/30 11:34:39;;;;;;;9.82;1.90;;;14.40;97.00;;;;;;4907399;29;20578;-82
2021/09/30 11:37:35;;;;;;;10.02;2.22;;;14.50;97.20;;;;;;4879245;29;20168;-83
2021/09/30 11:40:04;;;;;;;11.23;2.20;;;14.50;96.10;;;;;;4894217;29;20062;-83
2021/09/30 11:42:37;;;;;;;11.82;1.90;;;14.50;96.80;;;;;;4895156;29;20511;-82
2021/09/30 11:45:03;;;;;;;;;;;14.50;96.60;;;;;;4892299;29;20055;-84
2021/09/30 11:47:30;;;;;;;10.88;2.45;;;14.50;95.40;;;;;;4877946;29;19931;-81
2021/09/30 11:49:57;;;;;;;10.65;2.20;;;14.60;96.90;;;;;;4881553;29;20518;-84
2021/09/30 11:52:24;;;;;;;11.93;1.60;;;14.60;96.60;;;;;;4869601;29;20505;-83
2021/09/30 11:54:50;;;;;;;7.78;2.40;;;14.50;96.30;;;;;;4896389;29;20043;-83
2021/09/30 11:57:22;;;;;;;9.27;2.40;;;14.50;95.70;;;;;;4886676;29;20040;-82
2021/09/30 11:59:48;;;;;;;10.85;2.22;;;14.60;94.90;;;;;;4898362;29;20067;-79
2021/09/30 12:02:14;;;;;;;8.38;1.58;;;14.50;94.30;;;;;;4887419;29;20134;-80
2021/09/30 12:04:49;;;;;;;7.72;1.63;;;14.50;93.90;;;;;;4881014;29;20709;-79
2021/09/30 12:07:19;;;;;;;12.00;2.45;;;14.50;93.80;;;;;;4890936;29;20399;-83
2021/09/30 12:09:45;;;;;;;7.80;1.83;;;14.50;93.80;;;;;;4883833;29;20054;-81
2021/09/30 12:12:11;;;;;;;10.18;1.92;;;14.50;94.00;;;;;;4885756;29;20516;-83
2021/09/30 12:14:48;;;;;;;8.70;1.60;;;14.60;94.20;;;;;;4880933;29;20075;-82
2021/09/30 12:17:16;;;;;;;9.25;1.50;;;14.70;92.80;;;;;;4889313;29;20036;-83
2021/09/30 12:19:47;;;;;;;5.57;1.42;;;14.70;91.70;;;;;;4895644;29;20548;-81
2021/09/30 12:22:20;;;;;;;10.80;1.42;;;14.70;92.40;;;;;;4894817;29;20040;-79
2021/09/30 12:24:49;;;;;;;10.48;1.95;;;14.80;92.60;;;;;;4897371;29;20055;-82
2021/09/30 12:27:15;;;;;;;5.50;1.48;;;14.90;92.20;;;;;;4896005;29;20044;-80
2021/09/30 12:29:46;;;;;;;8.13;1.30;;;14.90;92.30;;;;;;4873371;29;20437;-80
2021/09/30 12:32:19;;;;;;;6.25;1.48;;;14.90;91.70;;;;;;4897462;29;20044;-83
2021/09/30 12:34:54;;;;;;;8.20;1.60;;;14.90;91.90;;;;;;4878993;29;20041;-80
2021/09/30 12:37:28;;;;;;;8.65;1.50;;;15.00;90.60;;;;;;4912112;29;20055;-80
2021/09/30 12:40:09;;;;;;;8.98;1.38;;;15.00;91.90;;;;;;4886367;29;20036;-80
2021/09/30 12:42:37;;;;;;;8.93;1.42;;;15.00;91.80;;;;;;4879844;29;20050;-82
2021/09/30 12:45:06;;;;;;;9.07;1.48;;;15.10;91.40;;;;;;4873147;29;20043;-82
2021/09/30 12:47:40;;;;;;;7.32;1.30;;;15.10;90.70;;;;;;4895111;29;20499;-83
2021/09/30 12:50:10;;;;;;;5.88;1.25;;;15.10;90.40;;;;;;4881800;29;20036;-82
2021/09/30 12:52:38;;;;;;;7.18;1.55;;;15.10;89.00;;;;;;4891248;29;20373;-83
2021/09/30 12:55:26;;;;;;;7.03;1.23;;;15.10;88.70;;;;;;4877340;29;20044;-83
2021/09/30 12:57:52;;;;;;;14.05;1.67;;;15.10;87.60;;;;;;4885032;29;20562;-82
2021/09/30 13:00:19;;;;;;;11.43;1.65;;;15.10;89.60;;;;;;4881888;29;20967;-78
2021/09/30 13:02:47;;;;;;;15.20;2.08;;;15.10;89.50;;;;;;4863012;29;24259;-83
2021/09/30 13:05:14;;;;;;;7.35;1.35;;;15.10;89.60;;;;;;4884057;29;20044;-83
2021/09/30 13:07:44;;;;;;;6.90;1.50;;;15.00;88.70;;;;;;4876782;29;20120;-81
2021/09/30 13:10:11;;;;;;;10.57;1.65;;;14.90;88.20;;;;;;4897564;29;20028;-80
2021/09/30 13:12:37;;;;;;;12.48;1.67;;;14.80;90.30;;;;;;4877444;29;20051;-81
2021/09/30 13:15:04;;;;;;;6.68;1.27;;;14.80;90.40;;;;;;4866452;29;20044;-79
2021/09/30 13:17:30;;;;;;;13.25;2.22;;;14.70;90.70;;;;;;4896194;29;20032;-82
2021/09/30 13:20:07;;;;;;;9.77;1.70;;;14.70;91.10;;;;;;4877399;29;20403;-79
2021/09/30 13:22:36;;;;;;;6.70;1.60;;;14.70;91.50;;;;;;4880612;29;20402;-79
2021/09/30 13:25:07;;;;;;;6.82;1.40;;;14.60;91.60;;;;;;4876026;29;20515;-83
2021/09/30 13:27:35;;;;;;;6.25;1.75;;;14.60;91.20;;;;;;4877270;29;20052;-82
2021/09/30 13:30:05;;;;;;;6.30;1.30;;;14.50;91.70;;;;;;4877501;29;20047;-78
2021/09/30 13:32:33;;;;;;;9.20;1.60;;;14.50;92.10;;;;;;4895660;29;20056;-83
2021/09/30 13:34:59;;;;;;;7.55;1.73;;;14.50;92.40;;;;;;4881056;29;20180;-79
2021/09/30 13:37:26;;;;;;;7.25;1.75;;;14.40;92.60;;;;;;4878184;29;20048;-82
2021/09/30 13:39:56;;;;;;;13.63;2.28;;;14.40;93.10;;;;;;4882973;29;20094;-80
2021/09/30 13:42:23;;;;;;;11.30;2.08;;;14.30;92.30;;;;;;4905106;29;20119;-80
2021/09/30 13:44:49;;;;;;;8.45;1.92;;;14.30;92.50;;;;;;4882924;29;20043;-82
2021/09/30 13:47:15;;;;;;;6.70;1.95;;;14.20;92.70;;;;;;4883949;29;20036;-80
2021/09/30 13:49:41;;;;;;;16.85;1.98;;;14.20;93.00;;;;;;4889199;29;20044;-82
2021/09/30 13:52:07;;;;;;;7.60;1.60;;;14.10;93.00;;;;;;4868261;29;20585;-80
2021/09/30 13:54:33;;;;;;;6.07;1.50;;;14.10;92.80;;;;;;4887238;29;20618;-81
2021/09/30 13:56:59;;;;;;;8.07;2.13;;;14.10;92.90;;;;;;4873764;29;20036;-78
2021/09/30 13:59:25;;;;;;;8.32;1.67;;;14.10;92.60;;;;;;4866048;29;20046;-80
2021/09/30 14:01:51;;;;;;;5.70;2.05;;;14.10;91.90;;;;;;4872946;29;20582;-80
2021/09/30 14:04:17;;;;;;;9.73;2.25;;;14.20;92.50;;;;;;4889456;29;20051;-79
2021/09/30 14:06:43;;;;;;;6.55;1.45;;;14.10;92.60;;;;;;4887622;29;20111;-79
2021/09/30 14:09:09;;;;;;;4.78;1.50;;;14.10;92.20;;;;;;4895480;29;20179;-81
2021/09/30 14:11:35;;;;;;;5.97;1.52;;;14.10;91.60;;;;;;4902374;29;20047;-82
2021/09/30 14:14:01;;;;;;;7.80;1.50;;;14.10;91.90;;;;;;4882828;29;20040;-83
2021/09/30 14:16:26;;;;;;;8.80;1.70;;;14.00;92.10;;;;;;4870185;29;20036;-81
2021/09/30 14:18:53;;;;;;;9.02;1.83;;;14.00;92.00;;;;;;4871128;29;20067;-78
2021/09/30 14:21:19;;;;;;;6.53;1.90;;;13.90;92.20;;;;;;4881784;29;20043;-80
2021/09/30 14:23:46;;;;;;;5.93;1.63;;;13.90;92.10;;;;;;4884804;29;20048;-82
2021/09/30 14:26:11;;;;;;;4.68;1.55;;;13.90;92.20;;;;;;4888468;29;20095;-84
2021/09/30 14:28:37;;;;;;;5.97;1.50;;;13.90;91.90;;;;;;4882945;29;21802;-81
2021/09/30 14:31:04;;;;;;;11.38;2.13;;;13.90;91.20;;;;;;4863054;29;20055;-80
2021/09/30 14:33:32;;;;;;;10.50;1.77;;;13.90;91.40;;;;;;4879327;29;20389;-83
2021/09/30 14:35:59;;;;;;;7.47;1.98;;;13.90;90.90;;;;;;4901876;29;20048;-82
2021/09/30 14:38:25;;;;;;;7.85;2.03;;;13.90;91.10;;;;;;4888329;29;20036;-83
2021/09/30 14:40:53;;;;;;;8.00;1.55;;;13.90;91.50;;;;;;4899337;29;20048;-82
2021/09/30 14:43:31;;;;;;;14.27;1.70;;;13.80;91.90;;;;;;4907541;29;20078;-83
2021/09/30 14:45:57;;;;;;;10.73;1.85;;;13.80;92.10;;;;;;4904393;29;20043;-82
2021/09/30 14:48:23;;;;;;;5.63;1.67;;;13.90;92.30;;;;;;4901954;29;20051;-82
2021/09/30 14:50:51;;;;;;;6.95;1.90;;;13.90;92.60;;;;;;4903799;29;20570;-80
2021/09/30 14:53:17;;;;;;;5.95;1.75;;;13.80;92.30;;;;;;4880221;29;20040;-81
2021/09/30 14:55:43;;;;;;;9.77;1.90;;;13.80;92.20;;;;;;4895824;29;20464;-81
2021/09/30 14:58:09;;;;;;;7.03;1.83;;;13.80;92.40;;;;;;4895616;29;20044;-82
2021/09/30 15:00:35;;;;;;;7.68;1.80;;;13.80;92.10;;;;;;4898810;29;20555;-82
2021/09/30 15:03:03;;;;;;;6.22;1.48;;;13.80;92.50;;;;;;4893926;29;20051;-83
2021/09/30 15:05:30;;;;;;;5.80;1.35;;;13.80;92.50;;;;;;4886686;29;20098;-81
2021/09/30 15:07:57;;;;;;;11.20;2.45;;;13.80;92.40;;;;;;4895016;29;20273;-81
2021/09/30 15:10:23;;;;;;;6.47;1.88;;;13.80;91.90;;;;;;4887423;29;20036;-82
2021/09/30 15:12:48;;;;;;;9.40;1.60;;;13.80;92.10;;;;;;4898658;29;20470;-81
2021/09/30 15:15:14;;;;;;;7.15;1.60;;;13.80;92.50;;;;;;4906600;29;20047;-82
2021/09/30 15:22:33;;;;;;;6.47;1.67;;;13.70;91.90;;;;;;4902880;29;20048;-82
2021/09/30 15:24:59;;;;;;;6.10;1.75;;;13.70;91.70;;;;;;4895439;29;20447;-82
2021/09/30 15:27:25;;;;;;;7.60;1.83;;;13.60;92.00;;;;;;4887552;29;20043;-80
2021/09/30 15:29:50;;;;;;;10.75;2.25;;;13.60;92.20;;;;;;4882870;29;20039;-83
2021/09/30 15:32:16;;;;;;;8.07;1.45;;;13.60;92.20;;;;;;4865698;29;20098;-82
2021/09/30 15:34:42;;;;;;;8.15;1.63;;;13.50;92.00;;;;;;4884170;29;20075;-82
2021/09/30 15:37:08;;;;;;;6.53;1.60;;;13.50;92.50;;;;;;4880087;29;20102;-81
2021/09/30 15:39:34;;;;;;;7.65;1.77;;;13.50;92.20;;;;;;4865760;29;20534;-82
2021/09/30 15:42:01;;;;;;;5.00;1.20;;;13.40;92.70;;;;;;4879805;29;20044;-83
2021/09/30 15:44:28;;;;;;;4.82;1.33;;;13.40;91.90;;;;;;4868647;29;20093;-81
2021/09/30 15:46:54;;;;;;;2.35;1.00;;;13.40;91.70;;;;;;4871229;29;21461;-80